Time;durP1;ratioP1;P1;durP2;ratioP2;P2;SDS_P1;SDS_P2;PMS_P1;PMS_P2;Temp;Humidity;BMP_temperature;BMP_pressure;BME280_temperature;BME280_humidity;BME280_pressure;Samples;Min_cycle;Max_cycle;Signal;HPM_P1;HPM_P2
2022/12/05 00:01:57;;;;;;;2.95;1.33;;;;;;;16.06;58.48;96993.06;5111802;28;20054;-33
2022/12/05 00:04:23;;;;;;;4.18;1.77;;;;;;;15.98;58.73;96991.03;5113127;28;20494;-33
2022/12/05 00:06:54;;;;;;;3.72;1.40;;;;;;;15.96;58.83;96983.28;5113282;28;20054;-33
2022/12/05 00:09:20;;;;;;;3.70;1.25;;;;;;;15.97;58.90;96993.00;5113357;28;20031;-33
2022/12/05 00:11:45;;;;;;;5.05;1.60;;;;;;;15.96;58.64;96986.00;5113044;27;20353;-34
2022/12/05 00:14:12;;;;;;;2.97;1.63;;;;;;;15.85;59.22;96999.31;5113290;28;20020;-34
2022/12/05 00:16:40;;;;;;;2.83;1.25;;;;;;;15.87;59.25;96999.66;5112867;28;20058;-33
2022/12/05 00:19:07;;;;;;;3.08;1.40;;;;;;;15.96;58.85;96993.44;5112987;27;20023;-33
2022/12/05 00:21:35;;;;;;;3.42;1.48;;;;;;;15.93;58.95;97000.59;5112925;27;20023;-33
2022/12/05 00:24:02;;;;;;;3.92;1.30;;;;;;;16.03;58.60;96993.19;5112793;28;20098;-33
2022/12/05 00:26:29;;;;;;;2.13;1.20;;;;;;;15.91;59.06;96992.06;5112535;28;20027;-33
2022/12/05 00:28:56;;;;;;;2.53;1.30;;;;;;;15.98;58.49;96991.03;5112631;28;20028;-33
2022/12/05 00:31:23;;;;;;;1.75;1.30;;;;;;;15.98;58.84;96991.81;5112682;28;20026;-33
2022/12/05 00:33:49;;;;;;;2.22;1.40;;;;;;;16.01;58.62;96984.69;5112792;28;20027;-33
2022/12/05 00:36:18;;;;;;;3.97;1.50;;;;;;;16.00;58.61;96989.38;5112761;28;20403;-33
2022/12/05 00:38:43;;;;;;;2.10;1.20;;;;;;;15.93;59.09;96989.66;5110534;28;20032;-33
2022/12/05 00:41:14;;;;;;;3.85;1.50;;;;;;;16.02;58.72;97002.63;5112634;28;20035;-33
2022/12/05 00:43:40;;;;;;;2.90;1.27;;;;;;;15.99;58.89;96993.31;5111260;28;20177;-34
2022/12/05 00:46:15;;;;;;;3.05;1.33;;;;;;;15.95;59.07;97000.16;5112416;28;20027;-35
2022/12/05 00:48:41;;;;;;;1.65;1.02;;;;;;;15.98;58.93;97008.22;5112489;28;20088;-33
2022/12/05 00:51:19;;;;;;;2.65;1.10;;;;;;;16.04;58.55;96987.28;5112132;28;20114;-34
2022/12/05 00:53:46;;;;;;;2.83;1.00;;;;;;;15.91;59.27;96989.34;5112544;28;20658;-33
2022/12/05 00:56:15;;;;;;;2.13;1.10;;;;;;;16.04;58.72;96995.50;5112485;28;20027;-33
2022/12/05 00:58:41;;;;;;;3.88;1.40;;;;;;;15.94;59.07;96987.69;5111933;28;20053;-33
2022/12/05 01:01:16;;;;;;;2.80;1.23;;;;;;;15.95;59.14;96991.94;5112164;28;20028;-33
2022/12/05 01:03:43;;;;;;;1.92;1.30;;;;;;;15.99;58.80;97008.97;5112084;28;20107;-33
2022/12/05 01:06:10;;;;;;;1.60;1.17;;;;;;;16.03;58.71;97010.38;5111854;28;20157;-33
2022/12/05 01:08:35;;;;;;;2.33;0.98;;;;;;;15.95;59.20;97009.09;5112218;28;20039;-33
2022/12/05 01:11:02;;;;;;;5.03;1.33;;;;;;;15.88;59.55;97012.13;5112349;28;20024;-33
2022/12/05 01:13:28;;;;;;;2.33;1.27;;;;;;;15.93;59.23;97017.03;5112141;28;20085;-35
2022/12/05 01:15:54;;;;;;;2.63;1.10;;;;;;;15.95;59.04;97028.25;5111682;28;20027;-33
2022/12/05 01:18:20;;;;;;;3.15;1.20;;;;;;;15.95;59.16;97022.78;5102940;28;20046;-33
2022/12/05 01:20:46;;;;;;;2.13;1.00;;;;;;;15.99;59.00;97017.19;5091820;28;20101;-34
2022/12/05 01:23:12;;;;;;;4.70;1.30;;;;;;;16.00;58.86;97022.22;5091767;28;20575;-33
2022/12/05 01:25:41;;;;;;;2.80;1.30;;;;;;;15.98;59.06;97019.16;5091583;28;20453;-33
2022/12/05 01:28:07;;;;;;;4.20;1.10;;;;;;;15.97;58.90;97012.16;5091334;28;20038;-33
2022/12/05 01:30:40;;;;;;;3.13;1.02;;;;;;;16.05;58.80;97001.72;5091674;28;20111;-34
2022/12/05 01:33:06;;;;;;;3.05;1.00;;;;;;;16.02;58.87;96992.44;5091360;28;20077;-33
2022/12/05 01:35:34;;;;;;;4.68;1.30;;;;;;;16.01;59.08;96979.97;5091605;28;20032;-33
2022/12/05 01:37:59;;;;;;;5.78;1.50;;;;;;;16.00;59.09;96977.69;5091389;28;20028;-34
2022/12/05 01:40:25;;;;;;;2.15;1.17;;;;;;;15.97;59.25;96982.06;5088053;28;20042;-33
2022/12/05 01:42:51;;;;;;;3.47;1.52;;;;;;;15.95;59.32;96973.53;5092687;28;20024;-34
2022/12/05 01:45:25;;;;;;;2.53;1.08;;;;;;;16.08;58.69;96990.63;5095444;28;20020;-33
2022/12/05 01:47:53;;;;;;;3.25;1.20;;;;;;;15.91;59.70;96981.13;5113166;28;20023;-34
2022/12/05 01:50:19;;;;;;;4.93;1.38;;;;;;;15.96;59.31;96977.81;5118124;28;20072;-35
2022/12/05 01:52:44;;;;;;;1.92;1.10;;;;;;;15.80;59.76;96967.09;5117833;28;20562;-33
2022/12/05 01:55:13;;;;;;;2.60;1.00;;;;;;;15.74;60.20;96963.41;5117900;28;20114;-33
2022/12/05 01:57:40;;;;;;;2.53;0.90;;;;;;;15.74;60.22;96960.66;5117835;28;20015;-33
2022/12/05 02:00:13;;;;;;;5.13;1.27;;;;;;;15.73;60.08;96968.09;5118130;27;20027;-33
2022/12/05 02:02:41;;;;;;;1.60;1.10;;;;;;;15.71;60.42;96970.53;5117303;28;20039;-34
2022/12/05 02:05:16;;;;;;;2.40;1.10;;;;;;;15.78;60.05;96966.78;5117902;28;20035;-33
2022/12/05 02:07:42;;;;;;;2.10;1.10;;;;;;;15.89;59.47;96969.13;5117644;28;20023;-33
2022/12/05 02:10:09;;;;;;;2.28;1.00;;;;;;;15.91;59.39;96963.97;5117804;27;20027;-33
2022/12/05 02:12:35;;;;;;;3.70;1.42;;;;;;;15.80;59.94;96964.38;5117600;27;20020;-33
2022/12/05 02:15:39;;;;;;;2.60;1.10;;;;;;;15.87;59.60;96977.75;5117545;28;20052;-34
2022/12/05 02:18:23;;;;;;;;;;;;;;;15.87;59.68;96990.69;5117718;28;20472;-33
2022/12/05 02:21:17;;;;;;;4.93;1.17;;;;;;;15.80;60.15;96997.19;5117241;28;19953;-33
2022/12/05 02:24:08;;;;;;;3.45;1.50;;;;;;;15.85;60.06;96990.34;5117686;28;20507;-33
2022/12/05 02:27:06;;;;;;;3.63;1.15;;;;;;;15.94;59.55;96990.44;5117351;28;20039;-33
2022/12/05 02:29:53;;;;;;;3.15;1.00;;;;;;;15.79;59.97;96990.19;5117257;28;20463;-33
2022/12/05 02:32:28;;;;;;;4.95;1.63;;;;;;;15.87;59.87;96993.41;5117131;28;20098;-35
2022/12/05 02:35:07;;;;;;;3.60;1.33;;;;;;;15.92;59.90;96996.34;5099271;28;20125;-34
2022/12/05 02:37:43;;;;;;;3.83;1.42;;;;;;;15.84;60.05;96997.78;5096480;28;20464;-33
2022/12/05 02:40:18;;;;;;;4.53;1.58;;;;;;;15.97;59.65;96995.75;5095503;28;20077;-34
2022/12/05 02:43:06;;;;;;;3.42;1.23;;;;;;;15.91;59.91;96981.13;5096396;28;20032;-33
2022/12/05 02:45:35;;;;;;;4.28;1.60;;;;;;;15.86;60.39;96989.91;5096710;28;20077;-34
2022/12/05 02:48:02;;;;;;;1.85;1.25;;;;;;;15.80;60.21;96997.19;5096612;28;20058;-33
2022/12/05 02:50:35;;;;;;;2.72;1.20;;;;;;;15.67;60.52;96996.50;5096427;28;20070;-33
2022/12/05 02:53:09;;;;;;;1.80;1.20;;;;;;;15.83;60.10;96996.25;5095161;28;20544;-33
2022/12/05 02:55:37;;;;;;;2.90;1.40;;;;;;;15.77;60.49;96993.38;5096451;28;20081;-33
2022/12/05 02:58:09;;;;;;;4.15;1.30;;;;;;;15.54;61.51;96988.31;5096361;28;20046;-35
2022/12/05 03:00:38;;;;;;;4.40;1.25;;;;;;;15.66;61.14;96992.22;5096340;28;20106;-35
2022/12/05 03:03:12;;;;;;;5.03;1.40;;;;;;;15.73;61.08;96989.97;5111978;28;20044;-33
2022/12/05 03:05:56;;;;;;;8.18;1.55;;;;;;;15.67;61.22;96993.75;5116677;28;20024;-33
2022/12/05 03:08:26;;;;;;;4.32;1.58;;;;;;;15.63;61.81;96993.13;5116520;28;20064;-33
2022/12/05 03:10:52;;;;;;;4.10;1.42;;;;;;;15.79;60.90;96996.41;5116371;28;20494;-33
2022/12/05 03:13:24;;;;;;;5.38;1.35;;;;;;;15.68;61.51;96996.06;5116524;27;20034;-33
2022/12/05 03:15:56;;;;;;;7.55;1.27;;;;;;;15.58;61.89;96999.91;5114998;28;20585;-33
2022/12/05 03:18:44;;;;;;;4.78;1.30;;;;;;;15.72;61.37;97001.38;5116604;28;20027;-33
2022/12/05 03:21:29;;;;;;;6.13;1.10;;;;;;;15.77;61.09;97003.53;5109461;28;20030;-33
2022/12/05 03:24:00;;;;;;;3.95;1.35;;;;;;;15.78;61.25;97010.53;5095925;28;20079;-33
2022/12/05 03:26:44;;;;;;;3.53;1.23;;;;;;;15.87;60.97;97007.09;5095788;28;20028;-33
2022/12/05 03:29:21;;;;;;;4.47;1.35;;;;;;;15.67;61.94;97008.19;5095591;28;20024;-33
2022/12/05 03:32:06;;;;;;;3.75;1.20;;;;;;;15.79;61.29;97007.34;5094482;28;20027;-35
2022/12/05 03:34:55;;;;;;;5.03;1.25;;;;;;;15.78;61.29;97011.31;5095686;28;20024;-34
2022/12/05 03:37:40;;;;;;;4.40;1.30;;;;;;;15.68;61.79;97017.94;5095599;28;20027;-33
2022/12/05 03:40:21;;;;;;;5.20;1.67;;;;;;;15.72;61.58;97002.13;5095540;28;20605;-33
2022/12/05 03:42:54;;;;;;;6.68;1.80;;;;;;;15.65;62.07;97018.81;5095517;28;20032;-33
2022/12/05 03:45:30;;;;;;;5.00;1.40;;;;;;;15.72;61.86;97018.53;5096423;28;20103;-34
2022/12/05 03:48:13;;;;;;;4.00;1.17;;;;;;;15.87;61.12;97013.31;5113501;28;20032;-33
2022/12/05 03:50:43;;;;;;;3.42;1.38;;;;;;;15.78;61.28;97010.53;5115201;28;20110;-33
2022/12/05 03:53:31;;;;;;;6.07;1.00;;;;;;;15.84;61.20;97007.97;5115542;28;20414;-33
2022/12/05 03:56:07;;;;;;;4.10;1.30;;;;;;;15.86;61.28;97011.78;5115519;28;20051;-34
2022/12/05 03:58:43;;;;;;;3.97;1.15;;;;;;;15.87;60.90;97013.31;5115674;28;20027;-34
2022/12/05 04:01:11;;;;;;;3.10;1.05;;;;;;;15.90;60.88;97017.91;5115267;27;20031;-33
2022/12/05 04:03:44;;;;;;;4.75;1.40;;;;;;;15.80;61.50;97030.00;5115284;28;20020;-35
2022/12/05 04:06:32;;;;;;;6.28;1.67;;;;;;;15.80;61.45;97014.34;5115117;28;20072;-33
2022/12/05 04:09:16;;;;;;;4.90;1.35;;;;;;;15.78;61.62;97010.53;5115299;28;20055;-34
2022/12/05 04:11:47;;;;;;;5.82;1.08;;;;;;;15.81;61.34;97026.06;5115462;28;20023;-33
2022/12/05 04:14:15;;;;;;;3.90;1.23;;;;;;;15.80;61.24;97021.78;5115064;27;20020;-33
2022/12/05 04:17:02;;;;;;;3.05;0.90;;;;;;;15.91;61.08;97024.91;5115277;28;20072;-34
2022/12/05 04:21:36;;;;;;;3.97;1.30;;;;;;;15.95;60.93;97024.78;5115215;28;20023;-33
2022/12/05 04:22:16;;;;;;;4.85;1.10;;;;;;;15.70;62.18;97025.69;5114888;28;20027;-33
2022/12/05 04:27:55;;;;;;;4.28;1.30;;;;;;;15.79;61.69;97031.97;5115296;28;20046;-33
2022/12/05 04:30:24;;;;;;;5.03;1.13;;;;;;;15.81;61.53;97031.53;5115016;28;20026;-33
2022/12/05 04:33:11;;;;;;;2.63;1.23;;;;;;;15.64;62.18;97036.41;5114806;28;20479;-33
2022/12/05 04:35:43;;;;;;;3.72;1.42;;;;;;;15.74;61.90;97042.72;5113505;28;20027;-33
2022/12/05 04:38:22;;;;;;;5.87;1.43;;;;;;;15.70;61.98;97045.56;5114655;28;20106;-33
2022/12/05 04:40:58;;;;;;;2.78;1.00;;;;;;;15.71;61.91;97041.63;5114824;28;20023;-33
2022/12/05 04:43:26;;;;;;;3.45;1.70;;;;;;;15.78;61.64;97043.34;5114623;28;20129;-33
2022/12/05 04:45:54;;;;;;;6.50;1.05;;;;;;;15.69;62.03;97048.75;5114610;28;20103;-34
2022/12/05 04:48:22;;;;;;;4.90;1.60;;;;;;;15.82;61.37;97055.66;5114669;28;20028;-33
2022/12/05 04:50:55;;;;;;;5.35;1.20;;;;;;;15.82;61.40;97052.94;5114460;28;20392;-33
2022/12/05 04:53:24;;;;;;;4.47;1.23;;;;;;;15.86;61.53;97055.56;5114634;28;20016;-34
2022/12/05 04:55:54;;;;;;;4.85;1.10;;;;;;;15.85;61.30;97061.47;5114483;28;20027;-34
2022/12/05 04:58:25;;;;;;;3.15;1.00;;;;;;;15.88;61.28;97061.34;5112735;28;20387;-33
2022/12/05 05:01:21;;;;;;;5.50;1.48;;;;;;;15.88;61.13;97069.56;5114079;28;20470;-33
2022/12/05 05:03:50;;;;;;;4.32;1.52;;;;;;;15.82;61.30;97066.63;5114276;28;20042;-34
2022/12/05 05:06:16;;;;;;;3.35;1.55;;;;;;;15.88;61.17;97069.56;5114445;28;20434;-33
2022/12/05 05:08:50;;;;;;;3.30;1.00;;;;;;;15.82;61.38;97076.06;5114265;28;20024;-33
2022/12/05 05:11:21;;;;;;;2.72;0.93;;;;;;;15.78;61.85;97070.69;5114343;28;20027;-34
2022/12/05 05:13:47;;;;;;;4.15;1.15;;;;;;;15.69;61.81;97070.66;5113951;28;20033;-34
2022/12/05 05:16:18;;;;;;;6.78;1.70;;;;;;;15.79;61.66;97072.22;5113871;28;20023;-33
2022/12/05 05:18:49;;;;;;;4.53;1.30;;;;;;;15.75;61.88;97072.34;5113836;28;20404;-33
2022/12/05 05:21:20;;;;;;;2.90;1.10;;;;;;;15.67;62.08;97082.03;5106898;28;20038;-33
2022/12/05 05:23:46;;;;;;;5.43;1.15;;;;;;;15.75;61.83;97075.09;5093552;28;20028;-33
2022/12/05 05:26:12;;;;;;;2.42;0.93;;;;;;;15.73;62.01;97068.53;5092536;28;20111;-33
2022/12/05 05:28:37;;;;;;;5.53;1.35;;;;;;;15.77;61.90;97071.91;5093478;28;20426;-36
2022/12/05 05:31:04;;;;;;;2.88;1.15;;;;;;;15.82;61.58;97074.81;5093590;28;20030;-35
2022/12/05 05:33:30;;;;;;;5.80;1.30;;;;;;;15.69;61.94;97078.84;5093591;28;20028;-35
2022/12/05 05:35:56;;;;;;;4.57;1.40;;;;;;;15.73;61.87;97080.22;5092982;28;20028;-35
2022/12/05 05:38:21;;;;;;;6.40;1.25;;;;;;;15.69;62.33;97073.38;5093516;28;20073;-35
2022/12/05 05:40:47;;;;;;;5.10;1.10;;;;;;;15.73;61.81;97079.47;5093281;28;20024;-34
2022/12/05 05:43:12;;;;;;;10.18;2.00;;;;;;;15.86;61.13;97066.50;5093513;28;20024;-33
2022/12/05 05:45:38;;;;;;;6.97;2.05;;;;;;;15.93;61.14;97066.25;5093568;28;20480;-33
2022/12/05 05:48:03;;;;;;;5.53;2.00;;;;;;;15.76;61.69;97075.84;5093269;28;20024;-34
2022/12/05 05:50:29;;;;;;;3.22;1.95;;;;;;;15.65;62.20;97075.47;5093368;28;20380;-33
2022/12/05 05:52:54;;;;;;;4.32;1.55;;;;;;;15.70;62.11;97085.84;5093118;28;20384;-33
2022/12/05 05:55:20;;;;;;;4.80;1.65;;;;;;;15.75;61.76;97090.72;5093123;28;20019;-33
2022/12/05 05:57:45;;;;;;;6.85;1.80;;;;;;;15.79;61.69;97083.94;5093388;28;20491;-33
2022/12/05 06:00:12;;;;;;;5.55;1.55;;;;;;;15.71;61.93;97084.59;5093318;28;20031;-33
2022/12/05 06:02:37;;;;;;;6.93;2.13;;;;;;;15.71;61.77;97085.38;5093175;28;20040;-33
2022/12/05 06:05:03;;;;;;;3.10;1.30;;;;;;;15.70;62.01;97086.59;5093284;28;20488;-33
2022/12/05 06:07:29;;;;;;;5.30;1.70;;;;;;;15.65;62.17;97105.53;5093112;28;20103;-33
2022/12/05 06:09:55;;;;;;;5.07;1.40;;;;;;;15.69;62.02;97106.94;5093421;28;20446;-33
2022/12/05 06:12:20;;;;;;;4.00;1.70;;;;;;;15.75;61.92;97101.66;5093125;28;20027;-34
2022/12/05 06:14:47;;;;;;;6.72;1.52;;;;;;;15.83;61.21;97094.72;5093079;28;20043;-33
2022/12/05 06:17:13;;;;;;;4.38;1.35;;;;;;;15.83;61.19;97100.19;5093260;28;20070;-33
2022/12/05 06:19:39;;;;;;;2.78;1.50;;;;;;;15.72;61.76;97103.31;5093293;28;20024;-35
2022/12/05 06:22:04;;;;;;;3.92;1.60;;;;;;;15.80;61.41;97117.53;5091758;28;20016;-33
2022/12/05 06:24:29;;;;;;;4.18;1.70;;;;;;;15.99;60.62;97107.47;5092884;28;20035;-33
2022/12/05 06:26:55;;;;;;;2.88;1.30;;;;;;;15.84;61.23;97118.13;5092966;28;20043;-33
2022/12/05 06:29:20;;;;;;;3.67;1.52;;;;;;;15.80;61.36;97110.09;5093890;28;20027;-34
2022/12/05 06:31:46;;;;;;;5.72;1.50;;;;;;;15.87;61.08;97120.00;5096967;28;20027;-34
2022/12/05 06:34:11;;;;;;;3.40;1.92;;;;;;;15.80;61.08;97112.03;5096949;28;20456;-33
2022/12/05 06:36:37;;;;;;;3.55;1.35;;;;;;;15.78;61.48;97117.97;5097158;28;20044;-33
2022/12/05 06:39:03;;;;;;;5.78;1.85;;;;;;;15.70;61.83;97124.13;5096832;28;20038;-34
2022/12/05 06:41:35;;;;;;;5.38;1.73;;;;;;;15.91;60.92;97134.31;5096736;28;20471;-35
2022/12/05 06:44:00;;;;;;;4.75;1.30;;;;;;;15.84;61.21;97134.53;5096440;28;20024;-33
2022/12/05 06:46:26;;;;;;;4.00;1.58;;;;;;;15.90;60.83;97135.53;5096682;28;20042;-33
2022/12/05 06:48:52;;;;;;;7.78;1.80;;;;;;;15.95;60.68;97145.88;5096053;28;20081;-33
2022/12/05 06:51:19;;;;;;;6.05;1.52;;;;;;;15.90;60.92;97146.47;5096598;28;20028;-33
2022/12/05 06:53:44;;;;;;;6.38;1.45;;;;;;;15.90;61.11;97148.44;5108063;28;20391;-33
2022/12/05 06:56:13;;;;;;;4.95;1.50;;;;;;;15.93;60.87;97142.84;5116535;28;20024;-34
2022/12/05 06:58:40;;;;;;;4.93;1.42;;;;;;;15.90;61.00;97149.19;5116690;28;20023;-35
2022/12/05 07:03:57;;;;;;;4.68;1.50;;;;;;;15.93;60.88;97142.84;5116508;28;20041;-33
2022/12/05 07:06:23;;;;;;;4.70;1.70;;;;;;;15.85;60.98;97151.72;5116259;28;20471;-33
2022/12/05 07:08:48;;;;;;;2.17;1.42;;;;;;;15.91;60.64;97145.25;5116701;28;20027;-34
2022/12/05 07:11:14;;;;;;;3.38;1.25;;;;;;;15.86;61.03;97150.53;5108137;28;20151;-33
2022/12/05 07:13:39;;;;;;;5.18;1.70;;;;;;;15.95;60.61;97154.09;5084203;28;20023;-33
2022/12/05 07:16:05;;;;;;;3.78;1.40;;;;;;;15.95;60.75;97148.63;5080977;28;20030;-32
2022/12/05 07:18:32;;;;;;;6.75;1.60;;;;;;;15.82;61.20;97149.91;5080267;28;20108;-32
2022/12/05 07:21:00;;;;;;;5.30;1.77;;;;;;;15.81;61.27;97154.59;5081647;28;20031;-33
2022/12/05 07:23:26;;;;;;;3.95;1.80;;;;;;;15.93;60.79;97159.25;5080443;28;20032;-32
2022/12/05 07:25:53;;;;;;;5.80;1.85;;;;;;;15.78;61.37;97166.41;5080890;28;20440;-33
2022/12/05 07:28:18;;;;;;;5.38;1.88;;;;;;;15.87;60.98;97161.03;5079099;28;20027;-35
2022/12/05 07:30:45;;;;;;;7.20;2.63;;;;;;;15.88;60.82;97164.53;5083811;28;20042;-33
2022/12/05 07:33:10;;;;;;;4.97;2.50;;;;;;;15.85;61.26;97163.44;5113761;27;20027;-32
2022/12/05 07:35:36;;;;;;;6.60;2.45;;;;;;;15.84;61.34;97174.81;5113661;28;20141;-32
2022/12/05 07:38:02;;;;;;;7.15;3.03;;;;;;;15.90;60.88;97173.06;5110772;28;20024;-33
2022/12/05 07:40:27;;;;;;;7.03;2.45;;;;;;;15.74;61.58;97174.75;5091469;28;20476;-32
2022/12/05 07:42:53;;;;;;;6.10;2.50;;;;;;;15.86;61.06;97178.63;5105651;28;20023;-32
2022/12/05 07:45:20;;;;;;;6.68;2.80;;;;;;;15.89;61.10;97179.72;5114015;28;20019;-33
2022/12/05 07:47:45;;;;;;;6.00;2.63;;;;;;;15.78;61.57;97180.84;5115530;28;20030;-32
2022/12/05 07:50:12;;;;;;;5.35;2.55;;;;;;;15.76;61.66;97187.97;5116168;28;20442;-32
2022/12/05 07:52:38;;;;;;;7.53;2.53;;;;;;;15.74;61.69;97190.38;5115616;28;20055;-32
2022/12/05 07:55:04;;;;;;;6.82;2.72;;;;;;;15.81;61.35;97198.38;5115432;28;20059;-32
2022/12/05 07:57:30;;;;;;;5.60;2.70;;;;;;;15.73;61.90;97199.78;5115409;27;20057;-33
2022/12/05 07:59:55;;;;;;;8.63;2.80;;;;;;;15.72;61.81;97196.28;5115441;28;20024;-32
2022/12/05 08:02:21;;;;;;;5.88;2.13;;;;;;;15.69;61.95;97199.16;5115212;28;20069;-32
2022/12/05 08:04:46;;;;;;;7.35;2.50;;;;;;;15.69;62.29;97205.41;5114729;28;20456;-32
2022/12/05 08:07:12;;;;;;;5.88;2.08;;;;;;;15.61;62.59;97204.09;5114712;28;20429;-32
2022/12/05 08:09:37;;;;;;;7.10;2.63;;;;;;;15.74;62.32;97207.56;5114231;28;20364;-32
2022/12/05 08:12:03;;;;;;;6.13;2.00;;;;;;;15.64;62.84;97214.16;5114829;28;20065;-33
2022/12/05 08:14:28;;;;;;;7.63;2.10;;;;;;;15.53;62.76;97219.16;5114906;28;20051;-32
2022/12/05 08:16:54;;;;;;;7.55;2.05;;;;;;;15.65;62.86;97225.84;5113421;28;20201;-33
2022/12/05 08:19:19;;;;;;;9.55;2.25;;;;;;;15.66;62.80;97221.91;5114070;27;20035;-33
2022/12/05 08:21:45;;;;;;;9.35;2.00;;;;;;;15.66;62.69;97219.19;5113958;28;20073;-32
2022/12/05 08:24:11;;;;;;;6.53;2.30;;;;;;;15.71;62.72;97232.28;5114702;28;20024;-33
2022/12/05 08:26:37;;;;;;;6.80;2.80;;;;;;;15.73;62.70;97238.06;5115006;28;20425;-32
2022/12/05 08:29:06;;;;;;;6.78;2.97;;;;;;;15.60;63.51;97231.84;5114754;28;20030;-32
2022/12/05 08:31:34;;;;;;;8.48;2.42;;;;;;;15.61;63.33;97241.59;5115061;28;20054;-32
2022/12/05 08:34:00;;;;;;;10.75;2.08;;;;;;;15.56;63.41;97233.97;5114827;28;20071;-32
2022/12/05 08:36:27;;;;;;;6.15;1.98;;;;;;;15.45;63.98;97223.34;5114708;28;20103;-32
2022/12/05 08:38:57;;;;;;;8.52;2.20;;;;;;;15.42;64.35;97226.94;5114543;27;20419;-33
2022/12/05 08:41:27;;;;;;;9.02;2.40;;;;;;;15.49;63.97;97215.78;5114851;28;20020;-33
2022/12/05 08:43:53;;;;;;;8.10;2.22;;;;;;;15.59;63.44;97211.97;5114768;28;20051;-32
2022/12/05 08:46:19;;;;;;;8.30;3.25;;;;;;;15.55;63.58;97205.09;5114020;28;20475;-32
2022/12/05 08:48:44;;;;;;;6.68;2.20;;;;;;;15.46;63.99;97209.22;5114428;28;20020;-32
2022/12/05 08:51:11;;;;;;;5.57;1.83;;;;;;;15.54;63.72;97198.06;5114294;28;20464;-32
2022/12/05 08:53:38;;;;;;;6.25;2.28;;;;;;;15.61;63.52;97225.19;5114364;28;20470;-32
2022/12/05 08:56:05;;;;;;;7.53;2.15;;;;;;;15.57;63.79;97214.38;5114286;28;20058;-33
2022/12/05 08:58:31;;;;;;;7.65;1.83;;;;;;;15.71;63.34;97213.13;5114504;28;20070;-32
2022/12/05 09:01:10;;;;;;;6.72;2.30;;;;;;;15.58;63.91;97221.34;5114133;28;20051;-32
2022/12/05 09:03:37;;;;;;;5.78;1.77;;;;;;;15.65;63.50;97221.16;5114345;28;20102;-32
2022/12/05 09:06:11;;;;;;;5.93;1.65;;;;;;;15.70;63.16;97228.03;5114210;28;20072;-32
2022/12/05 09:08:37;;;;;;;7.03;2.10;;;;;;;15.63;63.50;97222.78;5114399;28;20076;-32
2022/12/05 09:11:10;;;;;;;8.52;2.85;;;;;;;15.57;63.72;97230.03;5113994;28;20027;-32
2022/12/05 09:13:36;;;;;;;5.63;1.80;;;;;;;15.88;62.45;97235.63;5114340;28;20096;-32
2022/12/05 09:16:07;;;;;;;6.43;1.60;;;;;;;15.73;63.01;97249.00;5114078;28;20031;-32
2022/12/05 09:18:33;;;;;;;3.72;1.58;;;;;;;15.70;63.09;97238.97;5114021;28;20023;-32
2022/12/05 09:21:06;;;;;;;7.88;1.67;;;;;;;15.70;63.15;97228.78;5114203;28;20019;-32
2022/12/05 09:23:31;;;;;;;4.80;1.70;;;;;;;15.75;63.08;97227.47;5096935;28;20024;-32
2022/12/05 09:26:06;;;;;;;5.93;1.80;;;;;;;15.70;63.36;97219.84;5093389;28;20365;-32
2022/12/05 09:28:33;;;;;;;2.97;1.30;;;;;;;15.65;63.53;97223.88;5093512;28;20485;-33
2022/12/05 09:31:02;;;;;;;4.28;1.80;;;;;;;15.78;62.93;97219.16;5093862;28;20107;-32
2022/12/05 09:33:29;;;;;;;10.30;1.55;;;;;;;15.66;63.37;97228.16;5093855;28;20020;-32
2022/12/05 09:35:54;;;;;;;9.27;1.65;;;;;;;15.67;63.46;97235.16;5092165;28;20032;-32
2022/12/05 09:38:21;;;;;;;5.80;1.52;;;;;;;15.59;63.66;97227.59;5093545;28;20024;-32
2022/12/05 09:40:59;;;;;;;3.55;1.80;;;;;;;15.69;63.61;97230.00;5093543;28;20103;-32
2022/12/05 09:43:33;;;;;;;10.25;2.50;;;;;;;15.82;62.89;97225.25;5095223;28;20023;-32
2022/12/05 09:46:16;;;;;;;9.98;1.90;;;;;;;15.80;62.98;97213.25;5109950;28;20481;-32
2022/12/05 09:48:43;;;;;;;4.25;1.58;;;;;;;15.66;63.81;97225.41;5113098;28;20020;-32
2022/12/05 09:51:11;;;;;;;5.28;1.30;;;;;;;15.81;63.33;97222.97;5113723;28;20027;-32
2022/12/05 09:53:39;;;;;;;13.90;2.97;;;;;;;15.52;64.33;97231.31;5114079;28;20023;-32
2022/12/05 09:56:16;;;;;;;9.00;1.67;;;;;;;15.49;64.39;97220.47;5113938;28;20016;-32
2022/12/05 09:58:52;;;;;;;9.77;1.95;;;;;;;15.15;66.23;97215.69;5113538;28;20034;-34
2022/12/05 10:01:40;;;;;;;9.65;2.05;;;;;;;15.42;64.91;97226.94;5113221;28;20035;-33
2022/12/05 10:04:24;;;;;;;11.55;2.20;;;;;;;15.05;66.61;97220.28;5115772;28;20135;-33
2022/12/05 10:07:20;;;;;;;10.35;2.22;;;;;;;15.07;66.69;97229.56;5117653;28;20076;-34
2022/12/05 10:10:04;;;;;;;7.57;2.67;;;;;;;15.54;64.77;97226.16;5117788;28;20475;-33
2022/12/05 10:12:38;;;;;;;;;;;;;;;15.28;65.54;97219.19;5118029;28;20028;-34
2022/12/05 10:15:21;;;;;;;9.07;2.67;;;;;;;15.63;64.19;97211.84;5117433;28;19911;-33
2022/12/05 10:17:57;;;;;;;11.88;2.42;;;;;;;15.62;64.10;97216.56;5117443;28;20106;-33
2022/12/05 10:20:27;;;;;;;15.75;2.78;;;;;;;15.54;64.80;97207.03;5117581;28;20024;-34
2022/12/05 10:22:58;;;;;;;13.65;3.00;;;;;;;15.58;64.59;97204.22;5117437;28;20015;-34
2022/12/05 10:25:26;;;;;;;10.10;4.00;;;;;;;15.77;63.63;97187.53;5117834;28;20028;-34
2022/12/05 10:27:55;;;;;;;6.65;2.95;;;;;;;15.78;63.70;97201.97;5117510;28;20055;-33
2022/12/05 10:30:28;;;;;;;7.38;3.55;;;;;;;15.65;63.80;97188.34;5117304;28;20020;-33
2022/12/05 10:32:57;;;;;;;9.57;3.78;;;;;;;15.77;63.86;97189.50;5115942;28;20024;-33
2022/12/05 10:35:37;;;;;;;8.95;3.53;;;;;;;15.59;64.22;97194.78;5117036;28;20050;-32
2022/12/05 10:38:03;;;;;;;9.07;3.45;;;;;;;15.41;66.28;97189.88;5117039;28;20019;-35
2022/12/05 10:40:39;;;;;;;12.93;4.03;;;;;;;14.74;70.70;97189.97;5115737;28;20459;-33
2022/12/05 10:43:07;;;;;;;9.00;2.63;;;;;;;15.10;68.48;97182.25;5116795;28;20356;-33
2022/12/05 10:45:41;;;;;;;7.38;2.83;;;;;;;15.60;66.32;97171.72;5117231;27;20024;-33
2022/12/05 10:48:11;;;;;;;10.73;3.47;;;;;;;15.64;65.98;97175.88;5116962;28;20024;-33
2022/12/05 10:50:38;;;;;;;10.85;2.83;;;;;;;14.83;68.61;97173.72;5116995;28;20023;-33
2022/12/05 10:53:05;;;;;;;10.43;2.50;;;;;;;15.44;66.18;97176.09;5115864;28;20024;-34
2022/12/05 10:55:36;;;;;;;6.60;2.45;;;;;;;15.69;65.17;97193.69;5116135;28;20038;-33
2022/12/05 10:58:26;;;;;;;10.15;2.50;;;;;;;15.80;64.56;97172.97;5116860;28;20019;-33
2022/12/05 11:00:55;;;;;;;8.63;2.10;;;;;;;15.79;64.39;97160.50;5116894;28;20464;-33
2022/12/05 11:03:27;;;;;;;10.75;2.47;;;;;;;15.75;64.71;97159.09;5116409;28;20503;-33
2022/12/05 11:05:54;;;;;;;8.10;2.03;;;;;;;15.69;64.55;97160.88;5116308;28;20023;-35
2022/12/05 11:08:31;;;;;;;8.07;2.10;;;;;;;15.70;64.50;97148.72;5116426;28;20020;-33
2022/12/05 11:11:01;;;;;;;8.25;2.05;;;;;;;15.89;63.57;97141.44;5116293;28;20460;-34
2022/12/05 11:13:27;;;;;;;6.30;2.20;;;;;;;15.84;63.75;97137.28;5114694;28;20016;-33
2022/12/05 11:15:52;;;;;;;7.95;1.92;;;;;;;15.66;64.41;97139.88;5110316;28;20024;-35
2022/12/05 11:18:24;;;;;;;6.38;1.88;;;;;;;15.68;64.21;97145.69;5114115;28;20038;-37
2022/12/05 11:20:49;;;;;;;6.13;2.08;;;;;;;15.71;64.08;97142.03;5114058;28;20095;-36
2022/12/05 11:23:23;;;;;;;8.60;2.20;;;;;;;15.72;64.41;97149.81;5113975;28;20593;-33
2022/12/05 11:25:49;;;;;;;8.07;1.88;;;;;;;15.73;63.93;97140.38;5113920;28;20015;-33
2022/12/05 11:28:15;;;;;;;7.57;2.13;;;;;;;15.75;64.09;97137.22;5114004;27;20050;-34
2022/12/05 11:31:00;;;;;;;3.97;1.60;;;;;;;15.91;63.36;97128.84;5113823;28;20479;-33
2022/12/05 11:33:30;;;;;;;8.38;1.73;;;;;;;15.49;65.27;97135.72;5114184;28;20039;-33
2022/12/05 11:36:20;;;;;;;8.77;1.48;;;;;;;15.82;64.20;97122.56;5113869;28;20031;-34
2022/12/05 11:38:46;;;;;;;6.88;1.73;;;;;;;15.78;63.98;97128.91;5094626;28;20043;-33
2022/12/05 11:41:24;;;;;;;10.38;1.67;;;;;;;15.42;65.29;97128.53;5095392;28;20392;-33
2022/12/05 11:43:59;;;;;;;7.70;1.60;;;;;;;15.64;64.50;97120.41;5095091;28;20016;-33
2022/12/05 11:46:44;;;;;;;6.60;1.45;;;;;;;15.74;63.94;97120.03;5095413;28;20095;-35
2022/12/05 11:49:31;;;;;;;5.57;1.65;;;;;;;15.61;64.54;97111.13;5095437;28;20073;-33
2022/12/05 11:52:30;;;;;;;3.20;1.50;;;;;;;15.69;64.39;97106.19;5095231;28;20024;-33
2022/12/05 11:55:08;;;;;;;6.65;1.88;;;;;;;15.70;64.07;97107.72;5095444;28;20110;-33
2022/12/05 11:57:57;;;;;;;7.70;2.28;;;;;;;15.97;63.20;97088.75;5095177;28;20035;-34